createdAt,value
2023-05-07T00:01:42.624Z,83.34
2023-05-07T00:03:43.110Z,83.24
2023-05-07T00:05:43.472Z,82.94
2023-05-07T00:07:43.908Z,82.94
2023-05-07T00:09:44.236Z,83.45
2023-05-07T00:11:44.626Z,84.26
2023-05-07T00:13:44.936Z,84.05
2023-05-07T00:15:45.286Z,84.30
2023-05-07T00:17:45.575Z,84.30
2023-05-07T00:19:45.961Z,84.30
2023-05-07T00:21:46.216Z,85.41
2023-05-07T00:23:46.591Z,85.82
2023-05-07T00:25:46.918Z,86.07
2023-05-07T00:27:47.243Z,86.77
2023-05-07T00:29:47.600Z,86.98
2023-05-07T00:31:48.036Z,86.68
2023-05-07T00:33:48.361Z,86.61
2023-05-07T00:35:48.613Z,86.37
2023-05-07T00:37:48.982Z,85.76
2023-05-07T00:39:49.259Z,85.76
2023-05-07T00:41:49.583Z,85.46
2023-05-07T00:43:49.889Z,85.76
2023-05-07T00:45:50.186Z,85.41
2023-05-07T00:47:50.776Z,84.91
2023-05-07T00:49:51.099Z,84.40
2023-05-07T00:51:51.384Z,84.60
2023-05-07T00:53:51.677Z,84.50
2023-05-07T00:55:51.963Z,84.80
2023-05-07T00:57:52.303Z,84.95
2023-05-07T00:59:52.668Z,85.55
2023-05-07T01:01:52.942Z,85.86
2023-05-07T01:03:53.425Z,85.60
2023-05-07T01:05:54.108Z,85.70
2023-05-07T01:07:54.652Z,86.41
2023-05-07T01:09:54.908Z,86.51
2023-05-07T01:11:55.199Z,86.86
2023-05-07T01:13:55.601Z,87.47
2023-05-07T01:15:55.860Z,87.77
2023-05-07T01:17:56.249Z,87.57
2023-05-07T01:19:56.695Z,87.57
2023-05-07T01:21:56.994Z,87.57
2023-05-07T01:23:57.262Z,87.26
2023-05-07T01:25:57.616Z,87.57
2023-05-07T01:27:57.913Z,87.06
2023-05-07T01:29:58.297Z,87.26
2023-05-07T01:31:58.624Z,87.37
2023-05-07T01:33:58.949Z,87.51
2023-05-07T01:35:59.431Z,87.67
2023-05-07T01:37:59.735Z,87.77
2023-05-07T01:40:00.074Z,87.81
2023-05-07T01:42:00.385Z,87.61
2023-05-07T01:44:00.686Z,87.71
2023-05-07T01:46:01.032Z,87.30
2023-05-07T01:48:01.363Z,87.61
2023-05-07T01:50:01.646Z,88.02
2023-05-07T01:52:02.193Z,87.20
2023-05-07T01:54:02.485Z,87.30
2023-05-07T01:56:02.811Z,86.69
2023-05-07T01:58:03.099Z,86.59
2023-05-07T02:00:03.389Z,86.19
2023-05-07T02:02:03.768Z,86.04
2023-05-07T02:04:04.135Z,85.53
2023-05-07T02:06:04.433Z,85.53
2023-05-07T02:08:04.764Z,85.53
2023-05-07T02:10:05.020Z,85.29
2023-05-07T02:12:05.335Z,85.29
2023-05-07T02:14:05.639Z,85.09
2023-05-07T02:16:06.063Z,85.43
2023-05-07T02:18:06.402Z,85.64
2023-05-07T02:20:06.735Z,86.04
2023-05-07T02:22:06.995Z,86.15
2023-05-07T02:24:07.433Z,86.49
2023-05-07T02:26:07.673Z,86.90
2023-05-07T02:28:08.023Z,87.20
2023-05-07T02:30:08.484Z,87.41
2023-05-07T02:32:09.087Z,87.61
2023-05-07T02:34:09.402Z,87.61
2023-05-07T02:36:09.717Z,88.12
2023-05-07T02:38:10.077Z,88.12
2023-05-07T02:40:10.503Z,88.12
2023-05-07T02:42:10.855Z,88.12
2023-05-07T02:44:11.143Z,88.32
2023-05-07T02:46:11.583Z,88.73
2023-05-07T02:48:11.910Z,88.93
2023-05-07T02:50:12.479Z,89.54
2023-05-07T02:52:12.856Z,88.93
2023-05-07T02:54:13.195Z,89.03
2023-05-07T02:56:13.627Z,89.03
2023-05-07T02:58:13.899Z,88.83
2023-05-07T03:00:14.242Z,88.53
2023-05-07T03:02:14.511Z,88.32
2023-05-07T03:04:14.866Z,88.42
2023-05-07T03:06:15.192Z,88.83
2023-05-07T03:08:15.548Z,88.73
2023-05-07T03:10:15.794Z,88.53
2023-05-07T03:12:16.191Z,88.53
2023-05-07T03:14:16.412Z,88.83
2023-05-07T03:16:16.854Z,88.93
2023-05-07T03:18:17.220Z,89.03
2023-05-07T03:20:17.595Z,89.34
2023-05-07T03:22:17.941Z,89.28
2023-05-07T03:24:18.230Z,89.54
2023-05-07T03:26:18.510Z,89.48
2023-05-07T03:28:18.941Z,89.69
2023-05-07T03:30:19.987Z,89.69
2023-05-07T03:32:20.354Z,89.79
2023-05-07T03:34:20.637Z,90.03
2023-05-07T03:36:20.925Z,90.34
2023-05-07T03:38:21.270Z,90.85
2023-05-07T03:40:21.539Z,91.09
2023-05-07T03:42:21.867Z,91.30
2023-05-07T03:44:22.191Z,91.40
2023-05-07T03:46:23.047Z,91.61
2023-05-07T03:48:23.310Z,91.91
2023-05-07T03:50:23.634Z,91.40
2023-05-07T03:52:23.901Z,91.61
2023-05-07T03:54:24.311Z,91.65
2023-05-07T03:56:24.704Z,91.65
2023-05-07T03:58:24.945Z,92.16
2023-05-07T04:00:25.328Z,92.16
2023-05-07T04:02:25.666Z,92.57
2023-05-07T04:04:25.995Z,92.46
2023-05-07T04:06:26.392Z,92.46
2023-05-07T04:08:26.678Z,92.67
2023-05-07T04:10:26.957Z,92.87
2023-05-07T04:12:27.248Z,93.28
2023-05-07T04:14:27.675Z,93.07
2023-05-07T04:16:28.090Z,93.18
2023-05-07T04:18:28.392Z,93.59
2023-05-07T04:20:28.716Z,93.79
2023-05-07T04:22:28.980Z,93.89
2023-05-07T04:24:29.293Z,93.79
2023-05-07T04:26:29.586Z,93.59
2023-05-07T04:28:29.845Z,93.59
2023-05-07T04:30:30.165Z,93.38
2023-05-07T04:32:30.520Z,93.07
2023-05-07T04:34:30.753Z,93.24
2023-05-07T04:36:31.109Z,93.33
2023-05-07T04:38:31.364Z,93.24
2023-05-07T04:40:31.671Z,92.99
2023-05-07T04:42:31.974Z,92.99
2023-05-07T04:44:32.324Z,92.54
2023-05-07T04:46:32.755Z,91.83
2023-05-07T04:48:33.132Z,91.52
2023-05-07T04:50:33.403Z,91.11
2023-05-07T04:52:33.739Z,90.86
2023-05-07T04:54:34.020Z,90.86
2023-05-07T04:56:34.339Z,90.77
2023-05-07T04:58:34.748Z,90.66
2023-05-07T05:00:35.068Z,90.42
2023-05-07T05:02:35.326Z,90.31
2023-05-07T05:04:35.724Z,90.11
2023-05-07T05:06:35.966Z,90.01
2023-05-07T05:08:36.346Z,89.76
2023-05-07T05:10:36.596Z,89.66
2023-05-07T05:12:36.924Z,89.76
2023-05-07T05:14:37.199Z,89.36
2023-05-07T05:16:37.579Z,89.01
2023-05-07T05:18:37.982Z,88.71
2023-05-07T05:20:38.334Z,88.50
2023-05-07T05:22:38.578Z,87.99
2023-05-07T05:24:38.984Z,87.34
2023-05-07T05:26:39.231Z,87.55
2023-05-07T05:28:39.538Z,87.30
2023-05-07T05:30:39.804Z,86.90
2023-05-07T05:32:40.129Z,86.45
2023-05-07T05:34:40.423Z,85.84
2023-05-07T05:36:40.731Z,85.74
2023-05-07T05:38:41.107Z,85.39
2023-05-07T05:40:41.406Z,85.30
2023-05-07T05:42:41.700Z,85.39
2023-05-07T05:44:41.991Z,85.19
2023-05-07T05:46:42.385Z,84.95
2023-05-07T05:48:42.643Z,84.85
2023-05-07T05:50:42.987Z,84.55
2023-05-07T05:52:43.359Z,84.44
2023-05-07T05:54:43.688Z,84.00
2023-05-07T05:56:43.998Z,84.10
2023-05-07T05:58:44.265Z,83.35
2023-05-07T06:00:44.561Z,82.95
2023-05-07T06:02:45.097Z,82.75
2023-05-07T06:04:45.394Z,82.14
2023-05-07T06:06:45.853Z,82.34
2023-05-07T06:08:46.229Z,82.64
2023-05-07T06:10:46.500Z,82.95
2023-05-07T06:12:46.870Z,82.40
2023-05-07T06:14:47.410Z,81.79
2023-05-07T06:16:47.839Z,82.30
2023-05-07T06:18:48.112Z,81.55
2023-05-07T06:20:48.391Z,80.91
2023-05-07T06:22:48.892Z,80.30
2023-05-07T06:24:49.190Z,80.00
2023-05-07T06:26:49.481Z,80.40
2023-05-07T06:28:49.787Z,79.86
2023-05-07T06:30:50.116Z,79.66
2023-05-07T06:32:50.572Z,79.21
2023-05-07T06:34:50.855Z,78.71
2023-05-07T06:36:51.123Z,79.17
2023-05-07T06:38:51.478Z,78.17
2023-05-07T06:40:51.753Z,77.93
2023-05-07T06:42:52.064Z,77.53
2023-05-07T06:44:52.334Z,76.58
2023-05-07T06:46:52.722Z,75.98
2023-05-07T06:48:52.998Z,75.74
2023-05-07T06:50:53.283Z,75.94
2023-05-07T06:52:53.550Z,76.10
2023-05-07T06:54:53.868Z,74.69
2023-05-07T06:56:54.256Z,74.69
2023-05-07T06:58:54.512Z,74.90
2023-05-07T07:00:54.827Z,74.39
2023-05-07T07:02:55.173Z,75.16
2023-05-07T07:04:55.551Z,74.66
2023-05-07T07:06:55.850Z,73.75
2023-05-07T07:08:56.111Z,73.32
2023-05-07T07:10:56.487Z,72.77
2023-05-07T07:12:57.038Z,72.27
2023-05-07T07:14:57.366Z,71.83
2023-05-07T07:17:02.534Z,71.83
2023-05-07T07:19:02.830Z,71.80
2023-05-07T07:21:03.099Z,71.26
2023-05-07T07:23:03.574Z,68.95
2023-05-07T07:25:03.837Z,69.35
2023-05-07T07:27:04.237Z,68.92
2023-05-07T07:29:04.649Z,68.32
2023-05-07T07:31:05.030Z,68.68
2023-05-07T07:33:05.316Z,65.37
2023-05-07T07:35:05.604Z,66.17
2023-05-07T07:37:05.881Z,67.05
2023-05-07T07:39:06.168Z,65.94
2023-05-07T07:41:06.524Z,66.11
2023-05-07T07:43:06.800Z,66.41
2023-05-07T07:45:07.243Z,65.88
2023-05-07T07:47:07.584Z,64.98
2023-05-07T07:49:07.975Z,64.45
2023-05-07T07:51:08.247Z,64.95
2023-05-07T07:53:08.703Z,63.84
2023-05-07T07:55:08.952Z,64.34
2023-05-07T07:57:09.245Z,63.61
2023-05-07T07:59:09.551Z,63.24
2023-05-07T08:01:09.934Z,63.45
2023-05-07T08:03:10.301Z,63.81
2023-05-07T08:05:10.761Z,63.34
2023-05-07T08:07:11.116Z,64.78
2023-05-07T08:09:11.441Z,64.54
2023-05-07T08:11:11.798Z,65.48
2023-05-07T08:13:12.148Z,66.18
2023-05-07T08:15:12.595Z,65.68
2023-05-07T08:17:13.195Z,65.98
2023-05-07T08:19:13.603Z,64.98
2023-05-07T08:21:14.027Z,65.08
2023-05-07T08:23:14.368Z,65.58
2023-05-07T08:25:14.716Z,65.38
2023-05-07T08:27:15.075Z,66.18
2023-05-07T08:29:15.446Z,65.98
2023-05-07T08:31:15.949Z,66.38
2023-05-07T08:33:16.412Z,67.22
2023-05-07T08:35:16.754Z,67.22
2023-05-07T08:37:17.087Z,67.49
2023-05-07T08:39:17.523Z,66.88
2023-05-07T08:41:17.968Z,67.38
2023-05-07T08:43:18.293Z,65.88
2023-05-07T08:45:18.692Z,66.95
2023-05-07T08:47:19.006Z,66.45
2023-05-07T08:49:19.445Z,66.02
2023-05-07T08:51:19.749Z,65.48
2023-05-07T08:53:20.138Z,65.48
2023-05-07T08:55:20.445Z,65.28
2023-05-07T08:57:20.785Z,64.45
2023-05-07T08:59:21.172Z,64.86
2023-05-07T09:01:21.581Z,64.59
2023-05-07T09:03:22.056Z,64.98
2023-05-07T09:05:22.743Z,64.98
2023-05-07T09:07:23.064Z,65.31
2023-05-07T09:09:23.573Z,65.92
2023-05-07T09:11:23.969Z,67.59
2023-05-07T09:13:24.329Z,66.19
2023-05-07T09:15:24.657Z,66.09
2023-05-07T09:17:25.102Z,65.39
2023-05-07T09:19:25.455Z,66.89
2023-05-07T09:21:25.782Z,64.55
2023-05-07T09:23:26.091Z,64.89
2023-05-07T09:25:26.413Z,65.69
2023-05-07T09:27:26.750Z,66.78
2023-05-07T09:29:27.153Z,64.48
2023-05-07T09:31:27.456Z,65.16
2023-05-07T09:33:27.796Z,62.52
2023-05-07T09:35:28.100Z,62.42
2023-05-07T09:37:28.564Z,63.49
2023-05-07T09:39:28.824Z,62.37
2023-05-07T09:41:29.228Z,62.26
2023-05-07T09:43:29.458Z,61.83
2023-05-07T09:45:29.894Z,64.13
2023-05-07T09:47:30.220Z,61.83
2023-05-07T09:49:30.507Z,60.74
2023-05-07T09:51:30.828Z,61.83
2023-05-07T09:53:31.273Z,61.43
2023-05-07T09:55:36.324Z,60.16
2023-05-07T09:57:36.791Z,63.66
2023-05-07T09:59:37.076Z,61.16
2023-05-07T10:01:37.591Z,61.07
2023-05-07T10:03:38.146Z,61.96
2023-05-07T10:05:38.508Z,61.66
2023-05-07T10:07:38.921Z,62.39
2023-05-07T10:09:39.249Z,61.96
2023-05-07T10:11:39.595Z,60.49
2023-05-07T10:13:39.876Z,61.22
2023-05-07T10:15:40.194Z,63.59
2023-05-07T10:17:40.725Z,62.37
2023-05-07T10:19:41.151Z,61.26
2023-05-07T10:21:41.512Z,59.74
2023-05-07T10:23:41.798Z,60.03
2023-05-07T10:25:42.120Z,60.14
2023-05-07T10:27:42.478Z,60.41
2023-05-07T10:29:42.766Z,58.51
2023-05-07T10:31:43.193Z,60.58
2023-05-07T10:33:43.525Z,58.98
2023-05-07T10:35:43.891Z,59.85
2023-05-07T10:37:44.185Z,59.45
2023-05-07T10:39:44.490Z,58.72
2023-05-07T10:41:44.809Z,57.20
2023-05-07T10:43:45.133Z,56.87
2023-05-07T10:45:45.425Z,58.27
2023-05-07T10:47:45.849Z,57.45
2023-05-07T10:49:46.212Z,57.71
2023-05-07T10:51:46.522Z,55.10
2023-05-07T10:53:46.839Z,55.47
2023-05-07T10:55:47.139Z,55.18
2023-05-07T10:57:47.555Z,53.49
2023-05-07T10:59:47.899Z,56.84
2023-05-07T11:02:31.355Z,54.55
2023-05-07T11:04:31.699Z,54.85
2023-05-07T11:06:32.073Z,52.26
2023-05-07T11:08:32.358Z,54.06
2023-05-07T11:10:32.738Z,56.32
2023-05-07T11:12:33.005Z,52.54
2023-05-07T11:14:33.467Z,51.17
2023-05-07T11:16:33.752Z,52.56
2023-05-07T11:18:34.148Z,52.96
2023-05-07T11:20:34.458Z,53.23
2023-05-07T11:22:34.813Z,52.29
2023-05-07T11:24:35.376Z,53.08
2023-05-07T11:26:35.766Z,52.59
2023-05-07T11:28:36.214Z,48.92
2023-05-07T11:30:36.643Z,51.97
2023-05-07T11:32:36.928Z,50.09
2023-05-07T11:34:37.221Z,49.88
2023-05-07T11:36:37.520Z,49.99
2023-05-07T11:38:37.883Z,49.69
2023-05-07T11:40:38.188Z,51.20
2023-05-07T11:42:38.572Z,51.37
2023-05-07T11:44:38.987Z,52.12
2023-05-07T11:46:39.372Z,49.84
2023-05-07T11:48:39.764Z,51.28
2023-05-07T11:50:40.047Z,49.86
2023-05-07T11:52:41.346Z,49.96
2023-05-07T11:54:41.689Z,51.52
2023-05-07T11:56:42.011Z,51.10
2023-05-07T11:58:42.380Z,48.80
2023-05-07T12:00:42.691Z,47.71
2023-05-07T12:02:43.292Z,49.40
2023-05-07T12:04:43.756Z,50.56
2023-05-07T12:06:44.029Z,49.57
2023-05-07T12:08:46.477Z,50.85
2023-05-07T12:10:48.046Z,48.85
2023-05-07T12:12:48.398Z,47.77
2023-05-07T12:14:48.736Z,47.54
2023-05-07T12:16:49.059Z,45.00
2023-05-07T12:18:49.442Z,47.89
2023-05-07T12:20:49.762Z,47.86
2023-05-07T12:22:50.056Z,48.03
2023-05-07T12:24:50.469Z,49.01
2023-05-07T12:26:50.831Z,46.23
2023-05-07T12:28:51.131Z,44.61
2023-05-07T12:30:51.452Z,45.78
2023-05-07T12:32:51.798Z,46.84
2023-05-07T12:34:52.177Z,45.04
2023-05-07T12:36:52.471Z,47.41
2023-05-07T12:38:52.808Z,45.24
2023-05-07T12:40:53.094Z,42.93
2023-05-07T12:42:53.393Z,43.10
2023-05-07T12:44:53.749Z,44.15
2023-05-07T12:46:54.131Z,39.21
2023-05-07T12:48:55.410Z,39.90
2023-05-07T12:51:00.611Z,41.74
2023-05-07T12:53:00.933Z,38.82
2023-05-07T12:55:01.252Z,41.78
2023-05-07T12:57:01.606Z,44.54
2023-05-07T12:59:01.911Z,41.47
2023-05-07T13:01:02.204Z,38.72
2023-05-07T13:03:02.634Z,37.92
2023-05-07T13:05:02.981Z,40.08
2023-05-07T13:07:03.256Z,37.32
2023-05-07T13:09:03.586Z,37.84
2023-05-07T13:11:03.876Z,38.12
2023-05-07T13:13:04.341Z,43.80
2023-05-07T13:15:04.608Z,44.42
2023-05-07T13:17:04.998Z,40.74
2023-05-07T13:19:05.318Z,45.40
2023-05-07T13:21:05.607Z,45.07
2023-05-07T13:23:05.987Z,45.71
2023-05-07T13:25:06.257Z,47.09
2023-05-07T13:27:06.600Z,46.89
2023-05-07T13:29:06.915Z,46.05
2023-05-07T13:31:07.327Z,48.45
2023-05-07T13:33:07.725Z,46.98
2023-05-07T13:35:08.051Z,48.60
2023-05-07T13:37:11.218Z,48.84
2023-05-07T13:39:12.028Z,51.05
2023-05-07T13:41:12.351Z,51.77
2023-05-07T13:43:12.687Z,52.96
2023-05-07T13:45:13.115Z,53.86
2023-05-07T13:47:13.436Z,56.87
2023-05-07T13:49:13.753Z,57.19
2023-05-07T13:51:14.015Z,56.42
2023-05-07T13:53:14.367Z,56.55
2023-05-07T13:55:14.727Z,61.16
2023-05-07T13:57:15.146Z,72.98
2023-05-07T13:59:15.600Z,73.19
2023-05-07T14:01:15.900Z,74.63
2023-05-07T14:03:16.315Z,77.50
2023-05-07T14:05:16.736Z,81.79
2023-05-07T14:07:17.033Z,87.78
2023-05-07T14:09:17.359Z,91.72
2023-05-07T14:11:17.688Z,93.82
2023-05-07T14:13:17.971Z,95.28
2023-05-07T14:15:18.325Z,94.16
2023-05-07T14:17:18.706Z,96.12
2023-05-07T14:19:19.150Z,96.26
2023-05-07T14:21:19.491Z,94.39
2023-05-07T14:23:19.775Z,93.23
2023-05-07T14:25:20.280Z,93.53
2023-05-07T14:27:20.835Z,93.63
2023-05-07T14:29:24.041Z,94.84
2023-05-07T14:31:24.613Z,93.37
2023-05-07T14:33:24.980Z,94.38
2023-05-07T14:35:25.298Z,93.62
2023-05-07T14:37:25.567Z,90.79
2023-05-07T14:39:30.847Z,92.35
2023-05-07T14:41:31.191Z,94.31
2023-05-07T14:43:31.526Z,95.93
2023-05-07T14:45:31.906Z,95.01
2023-05-07T14:47:32.242Z,96.63
2023-05-07T14:49:32.595Z,97.64
2023-05-07T14:51:32.910Z,98.45
2023-05-07T14:53:33.247Z,98.65
2023-05-07T14:55:35.418Z,98.85
2023-05-07T14:57:35.926Z,99.97
2023-05-07T14:59:36.285Z,99.99
2023-05-07T15:01:36.648Z,99.99
2023-05-07T15:03:37.024Z,99.99
2023-05-07T15:05:37.598Z,99.99
2023-05-07T15:07:37.958Z,99.99
2023-05-07T15:09:38.240Z,99.99
2023-05-07T15:11:38.610Z,99.99
2023-05-07T15:13:38.898Z,99.99
2023-05-07T15:15:39.225Z,99.99
2023-05-07T15:17:39.616Z,99.99
2023-05-07T15:19:39.965Z,99.99
2023-05-07T15:21:40.314Z,99.99
2023-05-07T15:23:40.594Z,99.99
2023-05-07T15:25:40.900Z,99.99
2023-05-07T15:27:41.346Z,99.99
2023-05-07T15:29:41.826Z,99.99
2023-05-07T15:31:42.129Z,99.99
2023-05-07T15:33:42.438Z,99.99
2023-05-07T15:35:42.807Z,99.99
2023-05-07T15:37:43.120Z,99.99
2023-05-07T15:39:43.536Z,99.99
2023-05-07T15:41:43.902Z,99.99
2023-05-07T15:43:44.674Z,99.99
2023-05-07T15:45:45.064Z,99.99
2023-05-07T15:47:45.398Z,99.99
2023-05-07T15:49:45.751Z,99.99
2023-05-07T15:51:46.044Z,99.99
2023-05-07T15:53:46.373Z,99.99
2023-05-07T15:55:48.294Z,99.99
2023-05-07T15:57:50.005Z,99.99
2023-05-07T15:59:50.353Z,99.99
2023-05-07T16:01:50.966Z,99.99
2023-05-07T16:03:51.457Z,99.99
2023-05-07T16:05:51.719Z,99.99
2023-05-07T16:07:52.087Z,99.99
2023-05-07T16:09:52.453Z,99.99
2023-05-07T16:11:52.920Z,99.99
2023-05-07T16:13:53.688Z,99.99
2023-05-07T16:15:54.065Z,99.99
2023-05-07T16:17:54.486Z,99.99
2023-05-07T16:19:54.807Z,99.99
2023-05-07T16:21:55.103Z,99.99
2023-05-07T16:23:55.452Z,99.99
2023-05-07T16:25:56.414Z,99.99
2023-05-07T16:27:56.747Z,99.99
2023-05-07T16:29:57.040Z,99.99
2023-05-07T16:31:57.330Z,99.99
2023-05-07T16:33:57.669Z,99.99
2023-05-07T16:35:58.006Z,99.99
2023-05-07T16:37:58.277Z,99.99
2023-05-07T16:39:58.979Z,99.99
2023-05-07T16:41:59.310Z,99.99
2023-05-07T16:43:59.632Z,99.99
2023-05-07T16:46:00.045Z,99.99
2023-05-07T16:48:00.489Z,99.99
2023-05-07T16:50:00.806Z,99.99
2023-05-07T16:52:01.144Z,99.99
2023-05-07T16:54:01.506Z,99.99
2023-05-07T16:56:01.770Z,99.99
2023-05-07T16:58:02.078Z,99.99
2023-05-07T17:00:02.370Z,99.99
2023-05-07T17:02:02.652Z,99.99
2023-05-07T17:04:03.175Z,99.99
2023-05-07T17:06:03.572Z,99.99
2023-05-07T17:08:03.886Z,99.99
2023-05-07T17:10:04.275Z,99.99
2023-05-07T17:12:09.409Z,99.99
2023-05-07T17:14:09.698Z,99.99
2023-05-07T17:16:10.693Z,99.99
2023-05-07T17:18:11.050Z,99.99
2023-05-07T17:20:11.790Z,99.99
2023-05-07T17:22:12.225Z,99.99
2023-05-07T17:24:12.535Z,99.99
2023-05-07T17:26:12.847Z,99.99
2023-05-07T17:28:13.099Z,99.99
2023-05-07T17:30:13.807Z,99.99
2023-05-07T17:32:14.784Z,99.99
2023-05-07T17:34:15.379Z,99.99
2023-05-07T17:36:15.668Z,99.99
2023-05-07T17:38:15.980Z,99.99
2023-05-07T17:40:16.314Z,99.99
2023-05-07T17:42:17.271Z,99.99
2023-05-07T17:44:17.565Z,99.99
2023-05-07T17:46:17.957Z,99.99
2023-05-07T17:48:18.219Z,99.99
2023-05-07T17:50:18.664Z,99.99
2023-05-07T17:52:19.010Z,99.99
2023-05-07T17:54:19.318Z,99.99
2023-05-07T17:56:19.684Z,99.99
2023-05-07T17:58:20.037Z,99.99
2023-05-07T18:00:20.393Z,99.99
2023-05-07T18:02:20.764Z,99.99
2023-05-07T18:04:21.088Z,99.99
2023-05-07T18:06:21.481Z,99.99
2023-05-07T18:08:21.838Z,99.99
2023-05-07T18:10:22.201Z,99.99
2023-05-07T18:12:23.183Z,99.99
2023-05-07T18:14:24.460Z,99.99
2023-05-07T18:16:26.178Z,99.99
2023-05-07T18:18:27.047Z,99.99
2023-05-07T18:21:55.545Z,99.99
2023-05-07T18:24:41.094Z,99.99
2023-05-07T18:26:46.344Z,99.99
2023-05-07T18:28:46.752Z,99.99
2023-05-07T18:30:47.034Z,99.99
2023-05-07T18:32:47.412Z,99.99
2023-05-07T18:34:47.835Z,99.99
2023-05-07T18:36:48.229Z,99.99
2023-05-07T18:38:48.749Z,99.99
2023-05-07T18:40:49.120Z,99.99
2023-05-07T18:42:49.511Z,99.99
2023-05-07T18:44:49.969Z,99.99
2023-05-07T18:46:50.575Z,99.99
2023-05-07T18:48:50.928Z,99.99
2023-05-07T18:50:51.234Z,99.99
2023-05-07T18:52:51.773Z,99.99
2023-05-07T18:54:52.358Z,99.99
2023-05-07T18:56:52.730Z,99.99
2023-05-07T18:58:53.332Z,99.99
2023-05-07T19:00:53.809Z,99.99
2023-05-07T19:02:54.190Z,99.99
2023-05-07T19:04:54.635Z,99.99
2023-05-07T19:06:54.998Z,99.99
2023-05-07T19:08:55.478Z,99.99
2023-05-07T19:10:55.780Z,99.99
2023-05-07T19:12:56.122Z,99.99
2023-05-07T19:14:56.496Z,99.99
2023-05-07T19:16:56.937Z,99.99
2023-05-07T19:18:57.282Z,99.99
2023-05-07T19:20:57.610Z,99.99
2023-05-07T19:22:57.903Z,99.99
2023-05-07T19:24:58.300Z,99.99
2023-05-07T19:26:58.617Z,99.99
2023-05-07T19:31:02.200Z,99.99
2023-05-07T19:33:02.652Z,99.99
2023-05-07T19:35:02.971Z,99.99
2023-05-07T19:37:03.420Z,99.99
2023-05-07T19:39:03.868Z,99.99
2023-05-07T19:41:04.205Z,99.99
2023-05-07T19:43:04.564Z,99.99
2023-05-07T19:45:04.967Z,99.99
2023-05-07T19:47:05.267Z,99.99
2023-05-07T19:49:05.628Z,99.99
2023-05-07T19:51:05.938Z,99.99
2023-05-07T19:53:06.284Z,99.99
2023-05-07T19:55:06.699Z,99.99
2023-05-07T19:57:07.306Z,99.99
2023-05-07T19:59:07.773Z,99.99
2023-05-07T20:01:08.171Z,99.99
2023-05-07T20:03:08.566Z,99.99
2023-05-07T20:05:08.904Z,99.99
2023-05-07T20:07:09.204Z,99.99
2023-05-07T20:09:09.478Z,99.99
2023-05-07T20:11:09.786Z,99.99
2023-05-07T20:13:11.330Z,99.99
2023-05-07T20:15:11.691Z,99.99
2023-05-07T20:17:12.006Z,99.99
2023-05-07T20:19:12.285Z,99.99
2023-05-07T20:21:12.669Z,99.99
2023-05-07T20:23:12.985Z,99.99
2023-05-07T20:25:13.298Z,99.99
2023-05-07T20:27:13.611Z,99.99
2023-05-07T20:29:13.931Z,99.99
2023-05-07T20:31:14.245Z,99.99
2023-05-07T20:33:14.527Z,99.99
2023-05-07T20:35:14.827Z,99.99
2023-05-07T20:37:15.149Z,99.99
2023-05-07T20:39:15.428Z,99.99
2023-05-07T20:41:15.733Z,99.99
2023-05-07T20:43:16.023Z,99.99
2023-05-07T20:45:16.312Z,99.99
2023-05-07T20:47:16.652Z,99.99
2023-05-07T20:49:16.931Z,99.99
2023-05-07T20:51:17.233Z,99.99
2023-05-07T20:53:17.577Z,99.99
2023-05-07T20:55:17.858Z,99.99
2023-05-07T20:57:18.167Z,99.99
2023-05-07T20:59:18.448Z,99.99
2023-05-07T21:01:18.780Z,99.99
2023-05-07T21:03:19.069Z,99.99
2023-05-07T21:05:19.411Z,99.99
2023-05-07T21:07:19.664Z,99.99
2023-05-07T21:09:20.001Z,99.99
2023-05-07T21:11:20.302Z,99.99
2023-05-07T21:13:20.746Z,99.99
2023-05-07T21:15:21.120Z,99.99
2023-05-07T21:17:21.432Z,99.99
2023-05-07T21:19:21.763Z,99.99
2023-05-07T21:21:22.042Z,99.99
2023-05-07T21:23:22.348Z,99.99
2023-05-07T21:25:22.672Z,99.99
2023-05-07T21:27:23.038Z,99.99
2023-05-07T21:29:23.316Z,99.99
2023-05-07T21:31:23.695Z,99.99
2023-05-07T21:33:23.948Z,99.99
2023-05-07T21:35:29.172Z,99.99
2023-05-07T21:37:29.441Z,99.99
2023-05-07T21:39:29.775Z,99.99
2023-05-07T21:41:30.105Z,99.99
2023-05-07T21:43:36.314Z,99.99
2023-05-07T21:45:36.585Z,99.99
2023-05-07T21:47:36.915Z,99.99
2023-05-07T21:49:37.227Z,99.99
2023-05-07T21:51:37.542Z,99.99
2023-05-07T21:53:37.815Z,99.99
2023-05-07T21:55:38.108Z,99.99
2023-05-07T21:57:38.402Z,99.99
2023-05-07T21:59:38.695Z,99.99
2023-05-07T22:01:43.905Z,99.99
2023-05-07T22:03:44.325Z,99.99
2023-05-07T22:05:44.674Z,99.99
2023-05-07T22:07:44.943Z,99.99
2023-05-07T22:09:45.264Z,99.99
2023-05-07T22:11:45.592Z,99.99
2023-05-07T22:13:45.900Z,99.99
2023-05-07T22:15:56.603Z,99.99
2023-05-07T22:17:51.389Z,99.99
2023-05-07T22:19:51.681Z,99.99
2023-05-07T22:21:51.952Z,99.99
2023-05-07T22:23:52.256Z,99.99
2023-05-07T22:25:52.561Z,99.99
2023-05-07T22:27:52.889Z,99.99
2023-05-07T22:29:53.261Z,99.99
2023-05-07T22:31:53.572Z,99.99
2023-05-07T22:33:53.857Z,99.99
2023-05-07T22:35:54.157Z,99.99
2023-05-07T22:37:54.479Z,99.99
2023-05-07T22:39:54.741Z,99.99
2023-05-07T22:41:55.045Z,99.99
2023-05-07T22:43:55.339Z,99.99
2023-05-07T22:45:55.694Z,99.99
2023-05-07T22:47:55.961Z,99.99
2023-05-07T22:49:56.307Z,99.99
2023-05-07T22:51:56.608Z,99.99
2023-05-07T22:53:56.906Z,99.99
2023-05-07T22:55:57.200Z,99.99
2023-05-07T22:57:57.506Z,99.99
2023-05-07T22:59:57.809Z,99.99
2023-05-07T23:01:58.147Z,99.99
2023-05-07T23:03:58.425Z,99.99
2023-05-07T23:05:58.734Z,99.99
2023-05-07T23:07:59.000Z,99.99
2023-05-07T23:09:59.307Z,99.99
2023-05-07T23:11:59.597Z,99.99
2023-05-07T23:13:59.910Z,99.99
2023-05-07T23:16:00.257Z,99.99
2023-05-07T23:18:00.637Z,99.99
2023-05-07T23:20:01.003Z,99.99
2023-05-07T23:22:01.285Z,99.99
2023-05-07T23:24:01.593Z,99.99
2023-05-07T23:26:01.873Z,99.99
2023-05-07T23:28:02.158Z,99.99
2023-05-07T23:30:02.510Z,99.99
2023-05-07T23:32:02.821Z,99.99
2023-05-07T23:34:03.099Z,99.99
2023-05-07T23:36:03.421Z,99.99
2023-05-07T23:38:03.681Z,99.99
2023-05-07T23:40:03.979Z,99.99
2023-05-07T23:42:05.103Z,99.99
2023-05-07T23:44:05.380Z,99.99
2023-05-07T23:46:05.718Z,99.99
2023-05-07T23:48:05.993Z,99.99
2023-05-07T23:50:06.306Z,99.99
2023-05-07T23:52:06.570Z,99.99
2023-05-07T23:54:06.898Z,99.99
2023-05-07T23:56:07.170Z,99.99
2023-05-07T23:58:07.440Z,99.99
